createdAt,value
2018-06-05T00:01:28.480Z,21.20
2018-06-05T00:03:57.149Z,21.20
2018-06-05T00:06:25.545Z,21.20
2018-06-05T00:08:53.918Z,21.20
2018-06-05T00:11:22.318Z,21.30
2018-06-05T00:13:50.652Z,21.20
2018-06-05T00:16:18.991Z,21.20
2018-06-05T00:18:47.323Z,21.20
2018-06-05T00:21:15.845Z,21.10
2018-06-05T00:23:44.184Z,21.10
2018-06-05T00:26:13.124Z,21.10
2018-06-05T00:28:41.504Z,21.10
2018-06-05T00:31:09.873Z,21.00
2018-06-05T00:33:38.351Z,20.90
2018-06-05T00:36:06.789Z,20.90
2018-06-05T00:38:35.169Z,20.90
2018-06-05T00:41:03.531Z,20.80
2018-06-05T00:43:31.989Z,20.80
2018-06-05T00:46:00.352Z,20.80
2018-06-05T00:48:29.410Z,20.80
2018-06-05T00:50:58.200Z,20.80
2018-06-05T00:53:26.658Z,20.80
2018-06-05T00:55:55.041Z,20.70
2018-06-05T00:58:23.420Z,20.80
2018-06-05T01:00:51.805Z,20.80
2018-06-05T01:03:20.282Z,20.80
2018-06-05T01:05:48.647Z,20.80
2018-06-05T01:08:17.431Z,20.80
2018-06-05T01:10:45.870Z,20.70
2018-06-05T01:13:14.253Z,20.70
2018-06-05T01:15:42.663Z,20.60
2018-06-05T01:18:11.102Z,20.70
2018-06-05T01:20:39.607Z,20.60
2018-06-05T01:23:07.952Z,20.60
2018-06-05T01:25:36.303Z,20.50
2018-06-05T01:28:04.673Z,20.50
2018-06-05T01:30:33.048Z,20.50
2018-06-05T01:33:01.614Z,20.40
2018-06-05T01:35:29.949Z,20.40
2018-06-05T01:37:59.145Z,20.40
2018-06-05T01:40:27.497Z,20.30
2018-06-05T01:42:55.875Z,20.40
2018-06-05T01:45:24.226Z,20.40
2018-06-05T01:47:53.109Z,20.40
2018-06-05T01:50:25.743Z,20.30
2018-06-05T01:52:54.096Z,20.30
2018-06-05T01:55:23.113Z,20.30
2018-06-05T01:57:51.513Z,20.30
2018-06-05T02:00:21.098Z,20.20
2018-06-05T02:02:49.472Z,20.20
2018-06-05T02:07:45.868Z,20.10
2018-06-05T02:10:14.241Z,20.10
2018-06-05T02:12:42.661Z,20.10
2018-06-05T02:15:11.055Z,20.10
2018-06-05T02:17:39.407Z,20.00
2018-06-05T02:20:07.849Z,20.00
2018-06-05T02:22:36.215Z,19.90
2018-06-05T02:25:04.892Z,19.90
2018-06-05T02:27:33.270Z,19.90
2018-06-05T02:30:01.647Z,19.90
2018-06-05T02:32:34.335Z,19.80
2018-06-05T02:35:02.693Z,19.80
2018-06-05T02:37:31.067Z,19.80
2018-06-05T02:39:59.430Z,19.80
2018-06-05T02:42:27.817Z,19.80
2018-06-05T02:44:56.217Z,19.80
2018-06-05T02:47:25.124Z,19.70
2018-06-05T02:49:53.521Z,19.70
2018-06-05T02:52:21.891Z,19.70
2018-06-05T02:54:50.262Z,19.70
2018-06-05T02:57:18.638Z,19.70
2018-06-05T02:59:47.392Z,19.70
2018-06-05T03:02:16.203Z,19.70
2018-06-05T03:04:44.571Z,19.70
2018-06-05T03:07:12.964Z,19.70
2018-06-05T03:09:41.374Z,19.60
2018-06-05T03:12:10.523Z,19.60
2018-06-05T03:14:38.924Z,19.50
2018-06-05T03:17:07.275Z,19.50
2018-06-05T03:19:35.641Z,19.50
2018-06-05T03:22:04.252Z,19.50
2018-06-05T03:24:32.600Z,19.40
2018-06-05T03:27:00.962Z,19.40
2018-06-05T03:29:29.351Z,19.40
2018-06-05T03:31:57.780Z,19.50
2018-06-05T03:34:33.167Z,19.40
2018-06-05T03:37:01.587Z,19.40
2018-06-05T03:39:29.969Z,19.40
2018-06-05T03:41:58.351Z,19.40
2018-06-05T03:44:26.766Z,19.40
2018-06-05T03:46:55.217Z,19.30
2018-06-05T03:49:23.638Z,19.30
2018-06-05T03:51:51.990Z,19.30
2018-06-05T03:54:20.414Z,19.30
2018-06-05T03:56:48.786Z,19.20
2018-06-05T03:59:17.169Z,19.20
2018-06-05T04:01:45.535Z,19.20
2018-06-05T04:04:13.965Z,19.20
2018-06-05T04:06:42.325Z,19.10
2018-06-05T04:09:10.732Z,19.10
2018-06-05T04:11:39.118Z,19.10
2018-06-05T04:14:07.508Z,19.20
2018-06-05T04:16:35.854Z,19.20
2018-06-05T04:19:04.219Z,19.20
2018-06-05T04:21:32.610Z,19.10
2018-06-05T04:24:00.976Z,19.10
2018-06-05T04:26:29.652Z,19.10
2018-06-05T04:28:58.011Z,19.10
2018-06-05T04:31:28.309Z,19.10
2018-06-05T04:33:57.547Z,19.10
2018-06-05T04:36:25.952Z,19.20
2018-06-05T04:38:54.281Z,19.10
2018-06-05T04:41:22.651Z,19.20
2018-06-05T04:43:51.038Z,19.20
2018-06-05T04:46:19.459Z,19.20
2018-06-05T04:48:47.822Z,19.20
2018-06-05T04:51:16.154Z,19.20
2018-06-05T04:53:44.495Z,19.30
2018-06-05T04:56:13.058Z,19.30
2018-06-05T04:58:41.412Z,19.40
2018-06-05T05:01:09.769Z,19.30
2018-06-05T05:03:38.226Z,19.30
2018-06-05T05:06:06.569Z,19.30
2018-06-05T05:08:35.320Z,19.40
2018-06-05T05:11:04.021Z,19.40
2018-06-05T05:13:32.374Z,19.50
2018-06-05T05:16:00.710Z,19.50
2018-06-05T05:18:31.240Z,19.50
2018-06-05T05:21:00.036Z,19.50
2018-06-05T05:23:28.422Z,19.60
2018-06-05T05:25:56.757Z,19.60
2018-06-05T05:28:25.181Z,19.50
2018-06-05T05:30:53.543Z,19.50
2018-06-05T05:33:21.897Z,19.40
2018-06-05T05:35:50.276Z,19.50
2018-06-05T05:38:18.620Z,19.60
2018-06-05T05:40:46.997Z,19.70
2018-06-05T05:43:15.434Z,19.70
2018-06-05T05:45:43.807Z,19.80
2018-06-05T05:48:12.129Z,19.80
2018-06-05T05:50:40.518Z,19.70
2018-06-05T05:53:08.912Z,19.80
2018-06-05T05:55:41.327Z,19.80
2018-06-05T06:00:37.831Z,20.10
2018-06-05T06:03:06.174Z,20.30
2018-06-05T06:05:34.540Z,20.50
2018-06-05T06:08:02.993Z,20.60
2018-06-05T06:10:35.792Z,20.80
2018-06-05T06:13:04.258Z,21.30
2018-06-05T06:15:33.123Z,22.00
2018-06-05T06:20:30.047Z,23.20
2018-06-05T06:22:58.431Z,24.00
2018-06-05T06:25:26.858Z,24.40
2018-06-05T06:27:55.258Z,24.60
2018-06-05T06:30:23.779Z,24.90
2018-06-05T06:32:52.726Z,25.30
2018-06-05T06:35:21.122Z,25.30
2018-06-05T06:37:53.879Z,25.40
2018-06-05T06:40:22.337Z,25.60
2018-06-05T06:42:50.721Z,25.30
2018-06-05T06:45:23.426Z,25.40
2018-06-05T06:47:51.835Z,26.00
2018-06-05T06:50:20.263Z,26.60
2018-06-05T06:52:48.844Z,26.60
2018-06-05T06:55:17.348Z,26.40
2018-06-05T06:57:46.966Z,26.50
2018-06-05T07:00:15.717Z,26.70
2018-06-05T07:02:44.659Z,26.60
2018-06-05T07:05:13.019Z,27.00
2018-06-05T07:07:41.435Z,27.30
2018-06-05T07:10:09.904Z,27.00
2018-06-05T07:12:38.337Z,27.10
2018-06-05T07:15:06.775Z,27.30
2018-06-05T07:17:35.319Z,27.50
2018-06-05T07:20:03.785Z,27.20
2018-06-05T07:22:32.749Z,27.30
2018-06-05T07:25:01.253Z,26.90
2018-06-05T07:27:30.202Z,26.90
2018-06-05T07:29:58.625Z,27.20
2018-06-05T07:32:26.966Z,27.50
2018-06-05T07:34:55.965Z,27.60
2018-06-05T07:37:24.559Z,27.80
2018-06-05T07:39:52.980Z,27.80
2018-06-05T07:42:23.513Z,28.40
2018-06-05T07:44:52.046Z,28.90
2018-06-05T07:47:20.473Z,28.80
2018-06-05T07:49:49.599Z,28.60
2018-06-05T07:52:18.266Z,28.70
2018-06-05T07:54:46.858Z,29.00
2018-06-05T07:57:45.054Z,29.20
2018-06-05T08:00:35.353Z,29.10
2018-06-05T08:03:04.917Z,29.30
2018-06-05T08:05:34.367Z,29.40
2018-06-05T08:08:03.991Z,29.10
2018-06-05T08:10:32.332Z,29.10
2018-06-05T08:13:00.675Z,29.50
2018-06-05T08:17:58.110Z,29.20
2018-06-05T08:20:26.495Z,29.40
2018-06-05T08:22:56.082Z,29.00
2018-06-05T08:25:24.491Z,29.40
2018-06-05T08:27:52.941Z,30.00
2018-06-05T08:30:21.332Z,30.60
2018-06-05T08:32:50.383Z,30.50
2018-06-05T08:35:18.755Z,30.70
2018-06-05T08:37:47.126Z,31.30
2018-06-05T08:40:15.510Z,31.00
2018-06-05T08:42:43.840Z,30.40
2018-06-05T08:45:12.290Z,30.00
2018-06-05T08:47:40.574Z,30.20
2018-06-05T08:50:08.994Z,29.80
2018-06-05T08:52:37.356Z,29.70
2018-06-05T08:55:06.425Z,29.90
2018-06-05T08:57:34.772Z,30.30
2018-06-05T09:00:03.207Z,30.30
2018-06-05T09:02:31.586Z,30.30
2018-06-05T09:04:59.967Z,30.60
2018-06-05T09:07:28.370Z,30.90
2018-06-05T09:09:56.765Z,30.90
2018-06-05T09:12:25.145Z,31.30
2018-06-05T09:14:53.588Z,31.30
2018-06-05T09:17:21.991Z,31.60
2018-06-05T09:19:50.380Z,32.20
2018-06-05T09:22:18.829Z,32.00
2018-06-05T09:24:47.215Z,31.40
2018-06-05T09:27:15.602Z,30.90
2018-06-05T09:29:44.019Z,31.30
2018-06-05T09:32:12.391Z,31.40
2018-06-05T09:34:40.712Z,31.90
2018-06-05T09:37:09.107Z,32.10
2018-06-05T09:39:37.551Z,31.70
2018-06-05T09:42:05.846Z,32.00
2018-06-05T09:44:34.327Z,32.30
2018-06-05T09:47:02.753Z,32.30
2018-06-05T09:49:31.129Z,32.70
2018-06-05T09:51:59.583Z,32.10
2018-06-05T09:54:27.983Z,32.20
2018-06-05T09:56:57.427Z,32.10
2018-06-05T09:59:25.798Z,32.60
2018-06-05T10:01:54.186Z,32.20
2018-06-05T10:04:22.539Z,32.10
2018-06-05T10:06:50.941Z,31.50
2018-06-05T10:09:19.287Z,31.40
2018-06-05T10:11:47.651Z,31.30
2018-06-05T10:14:16.045Z,31.80
2018-06-05T10:16:44.367Z,32.00
2018-06-05T10:19:12.721Z,32.00
2018-06-05T10:21:41.142Z,31.60
2018-06-05T10:24:09.471Z,31.50
2018-06-05T10:26:37.835Z,31.90
2018-06-05T10:29:06.245Z,32.10
2018-06-05T10:31:34.560Z,32.20
2018-06-05T10:34:02.995Z,32.10
2018-06-05T10:36:31.389Z,32.20
2018-06-05T10:38:59.745Z,32.20
2018-06-05T10:41:28.039Z,31.60
2018-06-05T10:43:56.414Z,31.10
2018-06-05T10:46:24.717Z,31.20
2018-06-05T10:48:53.080Z,31.40
2018-06-05T10:51:21.423Z,31.20
2018-06-05T10:58:45.918Z,30.70
2018-06-05T11:01:14.246Z,31.20
2018-06-05T11:03:42.815Z,31.20
2018-06-05T11:06:11.220Z,30.60
2018-06-05T11:08:41.611Z,30.50
2018-06-05T11:11:10.002Z,30.20
2018-06-05T11:13:38.341Z,30.40
2018-06-05T11:16:06.695Z,30.30
2018-06-05T11:18:35.035Z,30.00
2018-06-05T11:21:03.466Z,29.70
2018-06-05T11:23:31.837Z,29.90
2018-06-05T11:26:00.290Z,30.20
2018-06-05T11:28:28.641Z,30.40
2018-06-05T11:30:57.051Z,29.90
2018-06-05T11:33:25.685Z,29.90
2018-06-05T11:35:54.085Z,29.80
2018-06-05T11:38:22.462Z,30.40
2018-06-05T11:40:50.821Z,30.60
2018-06-05T11:43:19.240Z,30.70
2018-06-05T11:45:47.626Z,30.90
2018-06-05T11:48:16.001Z,30.50
2018-06-05T11:50:44.395Z,30.30
2018-06-05T11:53:12.818Z,30.40
2018-06-05T11:55:41.191Z,30.60
2018-06-05T11:58:09.642Z,30.70
2018-06-05T12:00:37.972Z,31.00
2018-06-05T12:03:06.340Z,31.10
2018-06-05T12:05:34.709Z,31.10
2018-06-05T12:08:03.082Z,30.70
2018-06-05T12:10:31.471Z,30.20
2018-06-05T12:15:27.941Z,30.50
2018-06-05T12:17:56.274Z,30.20
2018-06-05T12:20:28.962Z,30.20
2018-06-05T12:22:57.604Z,29.70
2018-06-05T12:25:25.955Z,30.20
2018-06-05T12:27:54.312Z,30.20
2018-06-05T12:30:22.607Z,30.50
2018-06-05T12:32:50.986Z,30.40
2018-06-05T12:35:19.618Z,30.70
2018-06-05T12:37:48.005Z,30.50
2018-06-05T12:40:16.347Z,30.80
2018-06-05T12:42:44.688Z,30.40
2018-06-05T12:45:13.487Z,30.40
2018-06-05T12:47:41.901Z,30.60
2018-06-05T12:50:10.975Z,30.60
2018-06-05T12:52:39.372Z,30.80
2018-06-05T12:55:07.742Z,30.50
2018-06-05T12:57:36.507Z,29.90
2018-06-05T13:00:05.197Z,29.70
2018-06-05T13:02:33.522Z,30.00
2018-06-05T13:05:01.959Z,30.30
2018-06-05T13:07:30.274Z,30.30
2018-06-05T13:09:58.907Z,30.10
2018-06-05T13:12:27.287Z,30.30
2018-06-05T13:14:55.655Z,30.20
2018-06-05T13:17:24.007Z,30.30
2018-06-05T13:19:52.426Z,30.30
2018-06-05T13:22:20.778Z,30.40
2018-06-05T13:24:49.162Z,30.20
2018-06-05T13:27:17.726Z,30.20
2018-06-05T13:29:46.082Z,30.10
2018-06-05T13:32:14.432Z,30.40
2018-06-05T13:34:42.775Z,30.50
2018-06-05T13:37:11.210Z,30.50
2018-06-05T13:39:39.564Z,30.60
2018-06-05T13:42:07.933Z,30.50
2018-06-05T13:44:36.334Z,30.40
2018-06-05T13:47:04.747Z,30.30
2018-06-05T13:49:33.078Z,30.10
2018-06-05T13:52:01.508Z,30.00
2018-06-05T13:56:57.932Z,30.10
2018-06-05T13:59:26.364Z,30.10
2018-06-05T14:01:54.695Z,30.10
2018-06-05T14:04:23.050Z,30.10
2018-06-05T14:06:51.419Z,30.20
2018-06-05T14:09:19.868Z,30.40
2018-06-05T14:11:48.159Z,30.40
2018-06-05T14:14:16.497Z,30.30
2018-06-05T14:19:12.887Z,30.30
2018-06-05T14:21:41.270Z,29.90
2018-06-05T14:24:09.715Z,29.80
2018-06-05T14:26:38.096Z,29.90
2018-06-05T14:29:06.451Z,29.60
2018-06-05T14:31:34.827Z,29.40
2018-06-05T14:34:03.234Z,29.30
2018-06-05T14:36:31.602Z,29.30
2018-06-05T14:39:00.152Z,29.30
2018-06-05T14:41:28.513Z,29.30
2018-06-05T14:43:56.926Z,29.10
2018-06-05T14:46:25.271Z,28.90
2018-06-05T14:53:49.807Z,28.80
2018-06-05T14:56:18.240Z,28.80
2018-06-05T14:58:46.555Z,28.80
2018-06-05T15:01:14.886Z,28.70
2018-06-05T15:03:43.226Z,28.80
2018-06-05T15:06:11.740Z,28.70
2018-06-05T15:08:40.071Z,28.50
2018-06-05T15:11:08.425Z,28.60
2018-06-05T15:13:36.839Z,28.60
2018-06-05T15:16:05.262Z,28.60
2018-06-05T15:18:33.625Z,28.40
2018-06-05T15:21:02.029Z,28.30
2018-06-05T15:25:58.444Z,28.20
2018-06-05T15:28:26.845Z,28.20
2018-06-05T15:30:55.266Z,28.20
2018-06-05T15:33:23.606Z,28.40
2018-06-05T15:35:51.978Z,28.40
2018-06-05T15:38:20.345Z,28.30
2018-06-05T15:40:48.734Z,28.30
2018-06-05T15:43:17.080Z,28.20
2018-06-05T15:48:13.515Z,28.10
2018-06-05T15:50:41.893Z,28.20
2018-06-05T15:53:10.293Z,28.10
2018-06-05T15:55:38.647Z,28.20
2018-06-05T16:03:03.744Z,28.00
2018-06-05T16:05:32.266Z,28.10
2018-06-05T16:10:28.724Z,28.10
2018-06-05T16:12:57.112Z,28.00
2018-06-05T16:15:25.507Z,27.90
2018-06-05T16:17:53.884Z,27.80
2018-06-05T16:20:22.272Z,27.80
2018-06-05T16:22:55.381Z,27.80
2018-06-05T16:27:51.870Z,27.80
2018-06-05T16:30:20.376Z,27.70
2018-06-05T16:32:49.341Z,27.50
2018-06-05T16:35:17.698Z,27.30
2018-06-05T16:37:46.020Z,27.40
2018-06-05T16:40:14.406Z,27.30
2018-06-05T16:42:43.081Z,27.20
2018-06-05T16:45:11.580Z,27.30
2018-06-05T16:47:40.446Z,27.30
2018-06-05T16:50:11.594Z,27.30
2018-06-05T16:52:40.235Z,27.20
2018-06-05T16:55:08.886Z,27.30
2018-06-05T17:00:08.356Z,27.40
2018-06-05T17:02:36.735Z,27.10
2018-06-05T17:05:05.210Z,27.00
2018-06-05T17:07:34.828Z,26.90
2018-06-05T17:10:03.263Z,26.80
2018-06-05T17:12:32.682Z,26.80
2018-06-05T17:15:01.039Z,26.90
2018-06-05T17:17:29.462Z,26.90
2018-06-05T17:22:25.907Z,26.80
2018-06-05T17:24:54.747Z,26.70
2018-06-05T17:27:37.136Z,26.60
2018-06-05T17:30:10.499Z,26.60
2018-06-05T17:35:06.967Z,26.50
2018-06-05T17:37:56.403Z,26.40
2018-06-05T17:40:26.263Z,26.50
2018-06-05T17:42:55.662Z,26.40
2018-06-05T17:50:20.405Z,26.30
2018-06-05T17:52:48.762Z,26.10
2018-06-05T17:55:17.145Z,26.00
2018-06-05T17:57:45.615Z,26.00
2018-06-05T18:00:13.958Z,25.90
2018-06-05T18:02:42.376Z,25.90
2018-06-05T18:05:10.866Z,25.90
2018-06-05T18:07:39.267Z,25.80
2018-06-05T18:12:35.971Z,25.70
2018-06-05T18:15:05.400Z,25.70
2018-06-05T18:17:33.791Z,25.60
2018-06-05T18:20:02.318Z,25.60
2018-06-05T18:22:30.869Z,25.50
2018-06-05T18:27:27.849Z,25.40
2018-06-05T18:29:56.611Z,25.30
2018-06-05T18:32:25.246Z,25.20
2018-06-05T18:34:53.699Z,25.20
2018-06-05T18:37:22.189Z,25.20
2018-06-05T18:39:50.518Z,25.10
2018-06-05T18:42:18.954Z,25.10
2018-06-05T18:44:47.395Z,25.00
2018-06-05T18:47:15.781Z,24.90
2018-06-05T18:49:44.602Z,24.80
2018-06-05T18:52:12.963Z,24.70
2018-06-05T18:54:41.424Z,24.60
2018-06-05T18:57:09.890Z,24.70
2018-06-05T18:59:38.326Z,24.60
2018-06-05T19:02:06.710Z,24.60
2018-06-05T19:04:49.244Z,24.50
2018-06-05T19:07:17.783Z,24.40
2018-06-05T19:09:46.375Z,24.30
2018-06-05T19:14:47.105Z,24.20
2018-06-05T19:17:15.486Z,24.20
2018-06-05T19:24:40.082Z,24.10
2018-06-05T19:27:08.509Z,24.00
2018-06-05T19:29:36.959Z,23.90
2018-06-05T19:32:05.273Z,23.80
2018-06-05T19:34:33.630Z,23.80
2018-06-05T19:46:50.300Z,23.70
2018-06-05T19:49:19.401Z,23.60
2018-06-05T19:51:48.615Z,23.50
2018-06-05T19:54:17.997Z,23.50
2018-06-05T19:56:47.108Z,23.50
2018-06-05T20:12:16.236Z,23.50
2018-06-05T20:14:45.237Z,23.00
2018-06-05T20:17:14.852Z,22.90
2018-06-05T20:19:43.983Z,22.90
2018-06-05T20:22:13.290Z,22.80
2018-06-05T20:24:42.867Z,22.80
2018-06-05T20:27:14.165Z,22.70
2018-06-05T20:39:28.102Z,22.60
2018-06-05T20:41:56.875Z,22.40
2018-06-05T20:44:25.756Z,22.40
2018-06-05T20:46:54.292Z,22.40
2018-06-05T20:51:50.842Z,22.40
2018-06-05T20:54:21.006Z,22.30
2018-06-05T20:59:18.344Z,22.30
2018-06-05T21:01:47.463Z,22.30
2018-06-05T21:04:18.504Z,22.30
2018-06-05T21:06:47.708Z,22.30
2018-06-05T21:09:16.624Z,22.20
2018-06-05T21:14:19.632Z,22.20
2018-06-05T21:16:49.503Z,22.20
2018-06-05T21:19:24.060Z,22.10
2018-06-05T21:21:53.958Z,22.10
2018-06-05T21:24:24.705Z,22.00
2018-06-05T21:36:42.786Z,22.00
2018-06-05T21:41:39.362Z,21.80
2018-06-05T21:44:07.750Z,21.70
2018-06-05T21:46:36.162Z,21.70
2018-06-05T21:49:04.556Z,21.60
2018-06-05T21:51:32.929Z,21.60
2018-06-05T21:54:01.364Z,21.60
2018-06-05T21:56:29.686Z,21.60
2018-06-05T21:58:58.036Z,21.60
2018-06-05T22:01:26.395Z,21.60
2018-06-05T22:04:02.676Z,21.60
2018-06-05T22:06:31.087Z,21.60
2018-06-05T22:08:59.567Z,21.60
2018-06-05T22:11:28.279Z,21.60
2018-06-05T22:13:56.885Z,21.70
2018-06-05T22:16:29.806Z,21.50
2018-06-05T22:18:58.977Z,21.30
2018-06-05T22:21:27.632Z,21.30
2018-06-05T22:23:56.269Z,21.40
2018-06-05T22:26:24.758Z,21.40
2018-06-05T22:28:53.527Z,21.50
2018-06-05T22:31:22.129Z,21.30
2018-06-05T22:33:50.575Z,21.30
2018-06-05T22:36:19.172Z,21.20
2018-06-05T22:38:47.648Z,21.30
2018-06-05T22:41:16.129Z,21.20
2018-06-05T22:43:44.758Z,21.20
2018-06-05T22:46:13.340Z,21.10
2018-06-05T22:48:41.765Z,21.10
2018-06-05T22:51:10.218Z,21.10
2018-06-05T22:53:38.792Z,21.10
2018-06-05T22:56:07.314Z,21.20
2018-06-05T22:58:36.537Z,21.20
2018-06-05T23:01:05.017Z,21.20
2018-06-05T23:03:33.527Z,21.10
2018-06-05T23:06:02.439Z,21.10
2018-06-05T23:08:30.916Z,21.00
2018-06-05T23:10:59.551Z,21.10
2018-06-05T23:15:56.019Z,21.00
2018-06-05T23:18:24.455Z,20.90
2018-06-05T23:20:52.990Z,20.90
2018-06-05T23:23:21.396Z,20.90
2018-06-05T23:25:49.761Z,20.80
2018-06-05T23:28:18.281Z,20.80
2018-06-05T23:30:46.706Z,20.60
2018-06-05T23:33:15.135Z,20.60
2018-06-05T23:35:43.571Z,20.70
2018-06-05T23:38:11.974Z,20.70
2018-06-05T23:40:40.377Z,20.70
2018-06-05T23:43:08.822Z,20.60
2018-06-05T23:45:37.285Z,20.60
2018-06-05T23:48:05.686Z,20.70
2018-06-05T23:50:34.057Z,20.60
2018-06-05T23:53:02.439Z,20.50
2018-06-05T23:55:30.830Z,20.50
2018-06-05T23:57:59.247Z,20.50
